Esler Regional Airport
KESF : now visible

Aeroporto :











RITROVATECI SU...

 
LOGIN :

Iscrizione | Disclaimer

   EN    FR    IT 

 









Sommario :    VFR   VFR Marginale   IFR   IFR Intensivo   IFR Molto Intensivo
Visibilità : 
Base nubi : 
>= 8 km
>= 3000ft
5 / 8 km
1000 / 3000 ft
1500m / 5 km
500 / 1000 ft
800 / 1500m
200 / 500 ft
< 800m
< 200 ft
Simboli :   Temporali  Nebbia  Neve Forte  Precipitazioni Forti  Vento > 20 kt







- Altitudine del aeroporto : 112 ft


KESF - Esler Regional

ULTIMO METAR :
  • 241853Z AUTO 18009G15KT 10SM FEW039 27/17 A2991 RMK AO2 SLP125 T02720167

METARs OBSOLETI :
  • 241753Z AUTO 19007G15KT 10SM SCT035 SCT046 27/17 A2994 RMK AO2 SLP136 T02670172 10267 20144 58013
  • 241653Z AUTO 19010KT 10SM FEW029 SCT037 26/17 A2997 RMK AO2 SLP146 T02560172

TAF N/A
FIR KZHU / America del Nord



MetMap, La meteo Aeronautica in un colpo d'occhio ! - Copyright ORBIFLY Dicembre 2007 - Disclaimer

ORBIFLY MET'MAP TEAM :

Programmazione e sviluppo : Alexandra Zaïnal
Concezione e sviluppo : Baudouin d'Aumeries
Co-Programmazione e sviluppo : Marc-Olivier Méhu
Supporto tecnico e logistico : Manuel Goepfert
Aiuto per la traduzione : Arnaldo La Scala

Contatto : metmap@orbifly.com




FONTI E CREDITI :

   NOAA       Earth
Advisory